sensor_id;sensor_type;location;lat;lon;timestamp;temperature;humidity
32215;DHT22;18708;53.124;23.190;2022-08-18T00:01:22;18.80;99.90
32215;DHT22;18708;53.124;23.190;2022-08-18T00:03:48;18.80;99.90
32215;DHT22;18708;53.124;23.190;2022-08-18T00:06:15;18.70;99.90
32215;DHT22;18708;53.124;23.190;2022-08-18T00:08:40;18.60;99.90
32215;DHT22;18708;53.124;23.190;2022-08-18T00:11:06;18.60;99.90
32215;DHT22;18708;53.124;23.190;2022-08-18T00:13:32;18.60;99.90
32215;DHT22;18708;53.124;23.190;2022-08-18T00:15:57;18.60;99.90
32215;DHT22;18708;53.124;23.190;2022-08-18T00:18:23;18.60;99.90
32215;DHT22;18708;53.124;23.190;2022-08-18T00:20:48;18.60;99.90
32215;DHT22;18708;53.124;23.190;2022-08-18T00:23:14;18.50;99.90
32215;DHT22;18708;53.124;23.190;2022-08-18T00:25:40;18.50;99.90
32215;DHT22;18708;53.124;23.190;2022-08-18T00:28:05;18.40;99.90
32215;DHT22;18708;53.124;23.190;2022-08-18T00:30:31;18.30;99.90
32215;DHT22;18708;53.124;23.190;2022-08-18T00:32:57;18.30;99.90
32215;DHT22;18708;53.124;23.190;2022-08-18T00:35:25;18.40;99.90
32215;DHT22;18708;53.124;23.190;2022-08-18T00:37:51;18.40;99.90
32215;DHT22;18708;53.124;23.190;2022-08-18T00:40:18;18.30;99.90
32215;DHT22;18708;53.124;23.190;2022-08-18T00:42:46;18.30;99.90
32215;DHT22;18708;53.124;23.190;2022-08-18T00:45:14;18.30;99.90
32215;DHT22;18708;53.124;23.190;2022-08-18T00:47:40;18.30;99.90
32215;DHT22;18708;53.124;23.190;2022-08-18T00:50:06;18.10;99.90
32215;DHT22;18708;53.124;23.190;2022-08-18T00:52:32;18.00;99.90
32215;DHT22;18708;53.124;23.190;2022-08-18T00:54:58;18.00;99.90
32215;DHT22;18708;53.124;23.190;2022-08-18T00:57:26;18.10;99.90
32215;DHT22;18708;53.124;23.190;2022-08-18T00:59:55;18.10;99.90
32215;DHT22;18708;53.124;23.190;2022-08-18T01:02:29;18.10;99.90
32215;DHT22;18708;53.124;23.190;2022-08-18T01:05:05;18.10;99.90
32215;DHT22;18708;53.124;23.190;2022-08-18T01:07:34;18.00;99.90
32215;DHT22;18708;53.124;23.190;2022-08-18T01:10:00;18.00;99.90
32215;DHT22;18708;53.124;23.190;2022-08-18T01:12:29;17.90;99.90
32215;DHT22;18708;53.124;23.190;2022-08-18T01:14:54;17.90;99.90
32215;DHT22;18708;53.124;23.190;2022-08-18T01:17:20;17.80;99.90
32215;DHT22;18708;53.124;23.190;2022-08-18T01:20:04;17.90;99.90
32215;DHT22;18708;53.124;23.190;2022-08-18T01:23:02;17.90;99.90
32215;DHT22;18708;53.124;23.190;2022-08-18T01:25:28;18.00;99.90
32215;DHT22;18708;53.124;23.190;2022-08-18T01:28:14;18.00;99.90
32215;DHT22;18708;53.124;23.190;2022-08-18T01:30:51;18.00;99.90
32215;DHT22;18708;53.124;23.190;2022-08-18T01:33:20;17.90;99.90
32215;DHT22;18708;53.124;23.190;2022-08-18T01:35:46;17.80;99.90
32215;DHT22;18708;53.124;23.190;2022-08-18T01:38:16;17.80;99.90
32215;DHT22;18708;53.124;23.190;2022-08-18T01:40:43;17.70;99.90
32215;DHT22;18708;53.124;23.190;2022-08-18T01:43:09;17.70;99.90
32215;DHT22;18708;53.124;23.190;2022-08-18T01:45:36;17.70;99.90
32215;DHT22;18708;53.124;23.190;2022-08-18T01:48:01;17.70;99.90
32215;DHT22;18708;53.124;23.190;2022-08-18T01:50:29;17.70;99.90
32215;DHT22;18708;53.124;23.190;2022-08-18T01:52:55;17.70;99.90
32215;DHT22;18708;53.124;23.190;2022-08-18T01:55:21;17.70;99.90
32215;DHT22;18708;53.124;23.190;2022-08-18T01:57:46;17.70;99.90
32215;DHT22;18708;53.124;23.190;2022-08-18T02:00:13;17.70;99.90
32215;DHT22;18708;53.124;23.190;2022-08-18T02:02:39;17.70;99.90
32215;DHT22;18708;53.124;23.190;2022-08-18T02:05:08;17.70;99.90
32215;DHT22;18708;53.124;23.190;2022-08-18T02:07:35;17.60;99.90
32215;DHT22;18708;53.124;23.190;2022-08-18T02:10:01;17.40;99.90
32215;DHT22;18708;53.124;23.190;2022-08-18T02:12:27;17.20;99.90
32215;DHT22;18708;53.124;23.190;2022-08-18T02:14:52;17.20;99.90
32215;DHT22;18708;53.124;23.190;2022-08-18T02:17:18;17.10;99.90
32215;DHT22;18708;53.124;23.190;2022-08-18T02:19:44;17.10;99.90
32215;DHT22;18708;53.124;23.190;2022-08-18T02:22:13;17.00;99.90
32215;DHT22;18708;53.124;23.190;2022-08-18T02:24:39;17.00;99.90
32215;DHT22;18708;53.124;23.190;2022-08-18T02:27:05;17.00;99.90
32215;DHT22;18708;53.124;23.190;2022-08-18T02:29:31;17.00;99.90
32215;DHT22;18708;53.124;23.190;2022-08-18T02:31:57;17.00;99.90
32215;DHT22;18708;53.124;23.190;2022-08-18T02:34:23;17.10;99.90
32215;DHT22;18708;53.124;23.190;2022-08-18T02:36:49;17.10;99.90
32215;DHT22;18708;53.124;23.190;2022-08-18T02:39:16;17.20;99.90
32215;DHT22;18708;53.124;23.190;2022-08-18T02:41:41;17.20;99.90
32215;DHT22;18708;53.124;23.190;2022-08-18T02:44:07;17.20;99.90
32215;DHT22;18708;53.124;23.190;2022-08-18T02:46:32;17.20;99.90
32215;DHT22;18708;53.124;23.190;2022-08-18T02:48:58;17.30;99.90
32215;DHT22;18708;53.124;23.190;2022-08-18T02:51:24;17.30;99.90
32215;DHT22;18708;53.124;23.190;2022-08-18T02:53:50;17.20;99.90
32215;DHT22;18708;53.124;23.190;2022-08-18T02:56:20;17.20;99.90
32215;DHT22;18708;53.124;23.190;2022-08-18T02:58:49;17.20;99.90
32215;DHT22;18708;53.124;23.190;2022-08-18T03:01:17;17.20;99.90
32215;DHT22;18708;53.124;23.190;2022-08-18T03:03:42;17.20;99.90
32215;DHT22;18708;53.124;23.190;2022-08-18T03:06:08;17.10;99.90
32215;DHT22;18708;53.124;23.190;2022-08-18T03:08:33;17.10;99.90
32215;DHT22;18708;53.124;23.190;2022-08-18T03:10:59;17.10;99.90
32215;DHT22;18708;53.124;23.190;2022-08-18T03:13:24;17.00;99.90
32215;DHT22;18708;53.124;23.190;2022-08-18T03:15:50;17.00;99.90
32215;DHT22;18708;53.124;23.190;2022-08-18T03:18:16;17.00;99.90
32215;DHT22;18708;53.124;23.190;2022-08-18T03:20:41;17.00;99.90
32215;DHT22;18708;53.124;23.190;2022-08-18T03:23:10;16.90;99.90
32215;DHT22;18708;53.124;23.190;2022-08-18T03:25:41;16.80;99.90
32215;DHT22;18708;53.124;23.190;2022-08-18T03:28:07;16.80;99.90
32215;DHT22;18708;53.124;23.190;2022-08-18T03:30:32;16.80;99.90
32215;DHT22;18708;53.124;23.190;2022-08-18T03:32:58;16.70;99.90
32215;DHT22;18708;53.124;23.190;2022-08-18T03:35:23;16.90;99.90
32215;DHT22;18708;53.124;23.190;2022-08-18T03:37:50;16.90;99.90
32215;DHT22;18708;53.124;23.190;2022-08-18T03:40:15;16.80;99.90
32215;DHT22;18708;53.124;23.190;2022-08-18T03:42:41;16.80;99.90
32215;DHT22;18708;53.124;23.190;2022-08-18T03:45:07;16.80;99.90
32215;DHT22;18708;53.124;23.190;2022-08-18T03:47:32;16.80;99.90
32215;DHT22;18708;53.124;23.190;2022-08-18T03:49:58;16.80;99.90
32215;DHT22;18708;53.124;23.190;2022-08-18T03:52:23;16.80;99.90
32215;DHT22;18708;53.124;23.190;2022-08-18T03:54:49;16.80;99.90
32215;DHT22;18708;53.124;23.190;2022-08-18T03:57:14;16.90;99.90
32215;DHT22;18708;53.124;23.190;2022-08-18T03:59:40;16.80;99.90
32215;DHT22;18708;53.124;23.190;2022-08-18T04:02:08;16.90;99.90
32215;DHT22;18708;53.124;23.190;2022-08-18T04:04:33;16.90;99.90
32215;DHT22;18708;53.124;23.190;2022-08-18T04:07:04;16.90;99.90
32215;DHT22;18708;53.124;23.190;2022-08-18T04:09:30;17.00;99.90
32215;DHT22;18708;53.124;23.190;2022-08-18T04:11:57;17.00;99.90
32215;DHT22;18708;53.124;23.190;2022-08-18T04:14:23;17.00;99.90
32215;DHT22;18708;53.124;23.190;2022-08-18T04:16:49;17.10;99.90
32215;DHT22;18708;53.124;23.190;2022-08-18T04:19:15;17.10;99.90
32215;DHT22;18708;53.124;23.190;2022-08-18T04:21:42;17.10;99.90
32215;DHT22;18708;53.124;23.190;2022-08-18T04:24:09;17.10;99.90
32215;DHT22;18708;53.124;23.190;2022-08-18T04:26:37;17.20;99.90
32215;DHT22;18708;53.124;23.190;2022-08-18T04:29:04;17.20;99.90
32215;DHT22;18708;53.124;23.190;2022-08-18T04:31:29;17.20;99.90
32215;DHT22;18708;53.124;23.190;2022-08-18T04:33:57;17.30;99.90
32215;DHT22;18708;53.124;23.190;2022-08-18T04:36:22;17.40;99.90
32215;DHT22;18708;53.124;23.190;2022-08-18T04:38:48;17.40;99.90
32215;DHT22;18708;53.124;23.190;2022-08-18T04:41:14;17.50;99.90
32215;DHT22;18708;53.124;23.190;2022-08-18T04:43:40;17.50;99.90
32215;DHT22;18708;53.124;23.190;2022-08-18T04:46:06;17.60;99.90
32215;DHT22;18708;53.124;23.190;2022-08-18T04:48:37;17.70;99.90
32215;DHT22;18708;53.124;23.190;2022-08-18T04:51:03;17.70;99.90
32215;DHT22;18708;53.124;23.190;2022-08-18T04:53:30;17.80;99.90
32215;DHT22;18708;53.124;23.190;2022-08-18T04:56:24;17.80;99.90
32215;DHT22;18708;53.124;23.190;2022-08-18T05:01:20;18.00;99.90
32215;DHT22;18708;53.124;23.190;2022-08-18T05:03:46;18.10;99.90
32215;DHT22;18708;53.124;23.190;2022-08-18T05:06:12;18.20;99.90
32215;DHT22;18708;53.124;23.190;2022-08-18T05:08:38;18.40;99.90
32215;DHT22;18708;53.124;23.190;2022-08-18T05:11:03;18.40;99.90
32215;DHT22;18708;53.124;23.190;2022-08-18T05:13:29;18.50;99.90
32215;DHT22;18708;53.124;23.190;2022-08-18T05:15:56;18.70;99.90
32215;DHT22;18708;53.124;23.190;2022-08-18T05:18:22;18.70;99.90
32215;DHT22;18708;53.124;23.190;2022-08-18T05:20:51;18.90;99.90
32215;DHT22;18708;53.124;23.190;2022-08-18T05:23:18;19.10;99.90
32215;DHT22;18708;53.124;23.190;2022-08-18T05:25:44;19.20;99.90
32215;DHT22;18708;53.124;23.190;2022-08-18T05:28:09;19.30;99.90
32215;DHT22;18708;53.124;23.190;2022-08-18T05:30:35;19.50;99.90
32215;DHT22;18708;53.124;23.190;2022-08-18T05:33:01;19.60;99.90
32215;DHT22;18708;53.124;23.190;2022-08-18T05:35:40;19.70;99.90
32215;DHT22;18708;53.124;23.190;2022-08-18T05:38:17;19.90;99.90
32215;DHT22;18708;53.124;23.190;2022-08-18T05:41:02;20.40;99.90
32215;DHT22;18708;53.124;23.190;2022-08-18T05:43:29;20.80;99.90
32215;DHT22;18708;53.124;23.190;2022-08-18T05:45:55;21.00;99.90
32215;DHT22;18708;53.124;23.190;2022-08-18T05:48:21;21.10;99.90
32215;DHT22;18708;53.124;23.190;2022-08-18T05:50:47;21.30;99.90
32215;DHT22;18708;53.124;23.190;2022-08-18T05:53:13;21.50;99.90
32215;DHT22;18708;53.124;23.190;2022-08-18T05:55:43;21.60;99.90
32215;DHT22;18708;53.124;23.190;2022-08-18T05:58:31;21.80;99.90
32215;DHT22;18708;53.124;23.190;2022-08-18T06:01:00;22.00;99.90
32215;DHT22;18708;53.124;23.190;2022-08-18T06:03:41;22.20;99.90
32215;DHT22;18708;53.124;23.190;2022-08-18T06:06:10;22.40;99.90
32215;DHT22;18708;53.124;23.190;2022-08-18T06:09:11;22.70;99.90
32215;DHT22;18708;53.124;23.190;2022-08-18T06:11:28;23.00;99.90
32215;DHT22;18708;53.124;23.190;2022-08-18T06:13:53;23.10;99.90
32215;DHT22;18708;53.124;23.190;2022-08-18T06:26:53;24.40;99.90
32215;DHT22;18708;53.124;23.190;2022-08-18T06:41:57;25.30;99.90
32215;DHT22;18708;53.124;23.190;2022-08-18T06:44:26;25.30;99.90
32215;DHT22;18708;53.124;23.190;2022-08-18T06:54:43;26.40;99.90
32215;DHT22;18708;53.124;23.190;2022-08-18T06:57:10;26.20;99.90
32215;DHT22;18708;53.124;23.190;2022-08-18T06:59:52;26.60;99.90
32215;DHT22;18708;53.124;23.190;2022-08-18T07:02:19;26.70;99.90
32215;DHT22;18708;53.124;23.190;2022-08-18T07:05:00;26.60;99.90
32215;DHT22;18708;53.124;23.190;2022-08-18T07:07:30;26.60;99.90
32215;DHT22;18708;53.124;23.190;2022-08-18T07:09:56;26.90;99.90
32215;DHT22;18708;53.124;23.190;2022-08-18T07:12:24;26.80;99.90
32215;DHT22;18708;53.124;23.190;2022-08-18T07:14:58;27.20;99.90
32215;DHT22;18708;53.124;23.190;2022-08-18T07:17:28;27.30;99.90
32215;DHT22;18708;53.124;23.190;2022-08-18T07:19:55;27.60;99.90
32215;DHT22;18708;53.124;23.190;2022-08-18T07:22:21;28.20;99.90
32215;DHT22;18708;53.124;23.190;2022-08-18T07:24:47;28.60;99.90
32215;DHT22;18708;53.124;23.190;2022-08-18T07:27:15;28.60;99.90
32215;DHT22;18708;53.124;23.190;2022-08-18T07:32:22;28.30;99.90
32215;DHT22;18708;53.124;23.190;2022-08-18T07:34:49;28.60;99.90
32215;DHT22;18708;53.124;23.190;2022-08-18T07:37:20;29.00;99.90
32215;DHT22;18708;53.124;23.190;2022-08-18T07:39:50;28.80;99.90
32215;DHT22;18708;53.124;23.190;2022-08-18T07:44:52;29.10;99.90
32215;DHT22;18708;53.124;23.190;2022-08-18T07:47:22;29.20;99.90
32215;DHT22;18708;53.124;23.190;2022-08-18T07:49:51;29.50;99.90
32215;DHT22;18708;53.124;23.190;2022-08-18T07:52:30;29.10;99.90
32215;DHT22;18708;53.124;23.190;2022-08-18T07:55:05;29.40;99.90
32215;DHT22;18708;53.124;23.190;2022-08-18T07:57:46;29.50;99.90
32215;DHT22;18708;53.124;23.190;2022-08-18T08:00:19;30.10;99.90
32215;DHT22;18708;53.124;23.190;2022-08-18T08:02:55;30.30;99.60
32215;DHT22;18708;53.124;23.190;2022-08-18T08:05:33;30.30;99.90
32215;DHT22;18708;53.124;23.190;2022-08-18T08:21:04;30.80;96.90
32215;DHT22;18708;53.124;23.190;2022-08-18T08:33:32;30.90;94.40
32215;DHT22;18708;53.124;23.190;2022-08-18T08:38:58;31.70;92.80
32215;DHT22;18708;53.124;23.190;2022-08-18T08:41:30;32.40;91.10
32215;DHT22;18708;53.124;23.190;2022-08-18T08:47:06;31.70;86.90
32215;DHT22;18708;53.124;23.190;2022-08-18T08:49:53;32.30;88.60
32215;DHT22;18708;53.124;23.190;2022-08-18T08:55:11;31.20;85.40
32215;DHT22;18708;53.124;23.190;2022-08-18T09:00:28;31.90;83.90
32215;DHT22;18708;53.124;23.190;2022-08-18T09:05:27;31.60;82.40
32215;DHT22;18708;53.124;23.190;2022-08-18T09:23:47;31.60;80.00
32215;DHT22;18708;53.124;23.190;2022-08-18T09:29:24;31.70;79.40
32215;DHT22;18708;53.124;23.190;2022-08-18T09:31:48;31.90;82.20
32215;DHT22;18708;53.124;23.190;2022-08-18T09:39:48;32.20;75.00
32215;DHT22;18708;53.124;23.190;2022-08-18T09:47:57;32.70;75.80
32215;DHT22;18708;53.124;23.190;2022-08-18T09:50:34;32.90;74.60
32215;DHT22;18708;53.124;23.190;2022-08-18T09:53:15;33.20;74.40
32215;DHT22;18708;53.124;23.190;2022-08-18T09:55:55;32.80;76.00
32215;DHT22;18708;53.124;23.190;2022-08-18T10:03:40;33.90;75.80
32215;DHT22;18708;53.124;23.190;2022-08-18T10:06:12;33.20;71.30
32215;DHT22;18708;53.124;23.190;2022-08-18T10:08:44;33.40;74.70
32215;DHT22;18708;53.124;23.190;2022-08-18T10:11:29;32.90;74.60
32215;DHT22;18708;53.124;23.190;2022-08-18T10:14:12;32.50;75.70
32215;DHT22;18708;53.124;23.190;2022-08-18T10:29:09;33.20;72.70
32215;DHT22;18708;53.124;23.190;2022-08-18T10:37:22;33.80;70.80
32215;DHT22;18708;53.124;23.190;2022-08-18T10:44:42;32.90;71.20
32215;DHT22;18708;53.124;23.190;2022-08-18T10:47:09;32.80;70.40
32215;DHT22;18708;53.124;23.190;2022-08-18T10:49:46;32.90;71.40
32215;DHT22;18708;53.124;23.190;2022-08-18T10:52:31;34.30;69.60
32215;DHT22;18708;53.124;23.190;2022-08-18T11:05:05;30.70;75.80
32215;DHT22;18708;53.124;23.190;2022-08-18T11:07:31;31.60;79.60
32215;DHT22;18708;53.124;23.190;2022-08-18T11:09:57;32.70;74.80
32215;DHT22;18708;53.124;23.190;2022-08-18T11:12:36;33.60;69.80
32215;DHT22;18708;53.124;23.190;2022-08-18T11:15:06;33.50;70.60
32215;DHT22;18708;53.124;23.190;2022-08-18T11:20:13;33.10;70.00
32215;DHT22;18708;53.124;23.190;2022-08-18T11:22:48;33.60;70.60
32215;DHT22;18708;53.124;23.190;2022-08-18T11:25:31;33.70;68.40
32215;DHT22;18708;53.124;23.190;2022-08-18T11:27:57;33.10;69.60
32215;DHT22;18708;53.124;23.190;2022-08-18T11:30:24;33.30;67.70
32215;DHT22;18708;53.124;23.190;2022-08-18T11:32:51;33.10;70.80
32215;DHT22;18708;53.124;23.190;2022-08-18T11:35:26;33.90;69.90
32215;DHT22;18708;53.124;23.190;2022-08-18T11:37:57;34.00;66.10
32215;DHT22;18708;53.124;23.190;2022-08-18T11:40:31;33.20;71.90
32215;DHT22;18708;53.124;23.190;2022-08-18T11:43:00;33.80;71.20
32215;DHT22;18708;53.124;23.190;2022-08-18T11:45:32;34.90;68.60
32215;DHT22;18708;53.124;23.190;2022-08-18T11:47:59;34.40;65.80
32215;DHT22;18708;53.124;23.190;2022-08-18T11:50:25;34.00;68.10
32215;DHT22;18708;53.124;23.190;2022-08-18T11:52:52;33.20;62.40
32215;DHT22;18708;53.124;23.190;2022-08-18T11:55:20;33.10;65.60
32215;DHT22;18708;53.124;23.190;2022-08-18T12:03:04;33.50;68.90
32215;DHT22;18708;53.124;23.190;2022-08-18T12:05:43;33.40;67.40
32215;DHT22;18708;53.124;23.190;2022-08-18T12:08:24;33.60;67.70
32215;DHT22;18708;53.124;23.190;2022-08-18T12:11:02;34.10;64.50
32215;DHT22;18708;53.124;23.190;2022-08-18T12:13:28;34.00;65.60
32215;DHT22;18708;53.124;23.190;2022-08-18T12:16:07;33.60;67.00
32215;DHT22;18708;53.124;23.190;2022-08-18T12:18:33;33.80;66.70
32215;DHT22;18708;53.124;23.190;2022-08-18T12:21:00;32.90;68.10
32215;DHT22;18708;53.124;23.190;2022-08-18T12:23:26;32.40;70.90
32215;DHT22;18708;53.124;23.190;2022-08-18T12:25:52;33.20;70.80
32215;DHT22;18708;53.124;23.190;2022-08-18T12:28:18;33.70;68.10
32215;DHT22;18708;53.124;23.190;2022-08-18T12:30:44;34.20;64.40
32215;DHT22;18708;53.124;23.190;2022-08-18T12:33:10;34.80;64.60
32215;DHT22;18708;53.124;23.190;2022-08-18T12:35:35;35.50;62.80
32215;DHT22;18708;53.124;23.190;2022-08-18T12:38:01;34.00;63.90
32215;DHT22;18708;53.124;23.190;2022-08-18T12:40:26;35.60;61.20
32215;DHT22;18708;53.124;23.190;2022-08-18T12:42:52;35.20;65.20
32215;DHT22;18708;53.124;23.190;2022-08-18T12:45:17;35.50;62.20
32215;DHT22;18708;53.124;23.190;2022-08-18T12:47:43;34.40;62.60
32215;DHT22;18708;53.124;23.190;2022-08-18T12:50:08;33.90;61.90
32215;DHT22;18708;53.124;23.190;2022-08-18T12:52:34;33.60;64.80
32215;DHT22;18708;53.124;23.190;2022-08-18T12:55:00;32.80;66.50
32215;DHT22;18708;53.124;23.190;2022-08-18T12:57:26;32.90;68.40
32215;DHT22;18708;53.124;23.190;2022-08-18T12:59:51;33.30;64.80
32215;DHT22;18708;53.124;23.190;2022-08-18T13:02:19;33.60;65.70
32215;DHT22;18708;53.124;23.190;2022-08-18T13:04:45;33.00;64.80
32215;DHT22;18708;53.124;23.190;2022-08-18T13:07:11;32.90;68.00
32215;DHT22;18708;53.124;23.190;2022-08-18T13:09:38;32.90;67.20
32215;DHT22;18708;53.124;23.190;2022-08-18T13:12:03;32.70;65.90
32215;DHT22;18708;53.124;23.190;2022-08-18T13:14:30;32.30;67.40
32215;DHT22;18708;53.124;23.190;2022-08-18T13:16:56;32.50;67.90
32215;DHT22;18708;53.124;23.190;2022-08-18T13:19:21;32.50;66.80
32215;DHT22;18708;53.124;23.190;2022-08-18T13:21:47;32.60;69.60
32215;DHT22;18708;53.124;23.190;2022-08-18T13:24:12;32.70;67.70
32215;DHT22;18708;53.124;23.190;2022-08-18T13:26:40;32.50;66.30
32215;DHT22;18708;53.124;23.190;2022-08-18T13:29:06;33.10;66.00
32215;DHT22;18708;53.124;23.190;2022-08-18T13:31:32;33.20;65.30
32215;DHT22;18708;53.124;23.190;2022-08-18T13:33:58;33.30;67.20
32215;DHT22;18708;53.124;23.190;2022-08-18T13:36:24;33.60;65.10
32215;DHT22;18708;53.124;23.190;2022-08-18T13:38:50;33.90;61.80
32215;DHT22;18708;53.124;23.190;2022-08-18T13:41:19;33.50;66.40
32215;DHT22;18708;53.124;23.190;2022-08-18T13:43:45;33.00;67.00
32215;DHT22;18708;53.124;23.190;2022-08-18T13:46:13;33.00;66.50
32215;DHT22;18708;53.124;23.190;2022-08-18T13:48:39;33.20;65.00
32215;DHT22;18708;53.124;23.190;2022-08-18T13:51:05;32.70;65.70
32215;DHT22;18708;53.124;23.190;2022-08-18T13:53:32;32.70;66.60
32215;DHT22;18708;53.124;23.190;2022-08-18T13:56:00;32.30;68.10
32215;DHT22;18708;53.124;23.190;2022-08-18T13:58:26;32.50;70.70
32215;DHT22;18708;53.124;23.190;2022-08-18T14:00:54;31.90;71.20
32215;DHT22;18708;53.124;23.190;2022-08-18T14:03:20;32.00;70.40
32215;DHT22;18708;53.124;23.190;2022-08-18T14:05:48;31.30;70.30
32215;DHT22;18708;53.124;23.190;2022-08-18T14:08:14;31.40;70.60
32215;DHT22;18708;53.124;23.190;2022-08-18T14:10:39;31.20;70.40
32215;DHT22;18708;53.124;23.190;2022-08-18T14:13:05;31.50;71.80
32215;DHT22;18708;53.124;23.190;2022-08-18T14:15:32;31.50;70.80
32215;DHT22;18708;53.124;23.190;2022-08-18T14:18:02;31.60;68.80
32215;DHT22;18708;53.124;23.190;2022-08-18T14:20:28;31.70;67.80
32215;DHT22;18708;53.124;23.190;2022-08-18T14:23:12;31.40;69.40
32215;DHT22;18708;53.124;23.190;2022-08-18T14:25:56;31.40;73.20
32215;DHT22;18708;53.124;23.190;2022-08-18T14:28:40;31.30;69.40
32215;DHT22;18708;53.124;23.190;2022-08-18T14:31:06;30.80;70.60
32215;DHT22;18708;53.124;23.190;2022-08-18T14:33:32;30.90;71.00
32215;DHT22;18708;53.124;23.190;2022-08-18T14:35:58;30.90;71.40
32215;DHT22;18708;53.124;23.190;2022-08-18T14:38:24;31.10;70.60
32215;DHT22;18708;53.124;23.190;2022-08-18T14:40:49;30.60;70.70
32215;DHT22;18708;53.124;23.190;2022-08-18T14:43:17;30.50;73.10
32215;DHT22;18708;53.124;23.190;2022-08-18T14:45:45;30.30;72.60
32215;DHT22;18708;53.124;23.190;2022-08-18T14:48:15;30.40;73.00
32215;DHT22;18708;53.124;23.190;2022-08-18T14:50:44;30.70;71.20
32215;DHT22;18708;53.124;23.190;2022-08-18T14:53:10;30.10;71.00
32215;DHT22;18708;53.124;23.190;2022-08-18T14:55:37;30.20;71.60
32215;DHT22;18708;53.124;23.190;2022-08-18T14:58:03;30.00;73.30
32215;DHT22;18708;53.124;23.190;2022-08-18T15:00:29;29.90;72.70
32215;DHT22;18708;53.124;23.190;2022-08-18T15:02:55;29.90;73.10
32215;DHT22;18708;53.124;23.190;2022-08-18T15:05:22;30.10;72.70
32215;DHT22;18708;53.124;23.190;2022-08-18T15:07:47;30.20;73.30
32215;DHT22;18708;53.124;23.190;2022-08-18T15:10:13;30.00;73.80
32215;DHT22;18708;53.124;23.190;2022-08-18T15:12:39;30.10;73.50
32215;DHT22;18708;53.124;23.190;2022-08-18T15:15:06;29.90;73.80
32215;DHT22;18708;53.124;23.190;2022-08-18T15:17:33;29.90;72.60
32215;DHT22;18708;53.124;23.190;2022-08-18T15:20:00;29.90;73.80
32215;DHT22;18708;53.124;23.190;2022-08-18T15:22:25;29.90;73.80
32215;DHT22;18708;53.124;23.190;2022-08-18T15:25:09;29.90;73.60
32215;DHT22;18708;53.124;23.190;2022-08-18T15:27:53;29.80;74.20
32215;DHT22;18708;53.124;23.190;2022-08-18T15:30:20;29.80;74.30
32215;DHT22;18708;53.124;23.190;2022-08-18T15:32:46;29.90;75.50
32215;DHT22;18708;53.124;23.190;2022-08-18T15:35:12;29.70;74.00
32215;DHT22;18708;53.124;23.190;2022-08-18T15:37:40;29.70;75.30
32215;DHT22;18708;53.124;23.190;2022-08-18T15:42:35;29.50;74.20
32215;DHT22;18708;53.124;23.190;2022-08-18T15:45:01;29.60;74.40
32215;DHT22;18708;53.124;23.190;2022-08-18T15:47:28;29.60;75.10
32215;DHT22;18708;53.124;23.190;2022-08-18T15:49:55;29.70;73.80
32215;DHT22;18708;53.124;23.190;2022-08-18T15:52:21;29.70;74.40
32215;DHT22;18708;53.124;23.190;2022-08-18T15:54:48;29.70;73.50
32215;DHT22;18708;53.124;23.190;2022-08-18T15:57:14;29.60;75.40
32215;DHT22;18708;53.124;23.190;2022-08-18T15:59:39;29.50;75.20
32215;DHT22;18708;53.124;23.190;2022-08-18T16:02:05;29.50;75.90
32215;DHT22;18708;53.124;23.190;2022-08-18T16:04:31;29.50;75.80
32215;DHT22;18708;53.124;23.190;2022-08-18T16:06:56;29.60;76.20
32215;DHT22;18708;53.124;23.190;2022-08-18T16:09:22;29.50;76.40
32215;DHT22;18708;53.124;23.190;2022-08-18T16:11:47;29.50;75.50
32215;DHT22;18708;53.124;23.190;2022-08-18T16:14:13;29.40;75.70
32215;DHT22;18708;53.124;23.190;2022-08-18T16:19:06;29.40;77.20
32215;DHT22;18708;53.124;23.190;2022-08-18T16:21:31;29.30;77.20
32215;DHT22;18708;53.124;23.190;2022-08-18T16:23:57;29.40;76.40
32215;DHT22;18708;53.124;23.190;2022-08-18T16:26:23;29.30;76.30
32215;DHT22;18708;53.124;23.190;2022-08-18T16:28:49;29.20;77.10
32215;DHT22;18708;53.124;23.190;2022-08-18T16:31:21;29.20;77.40
32215;DHT22;18708;53.124;23.190;2022-08-18T16:33:53;29.20;80.60
32215;DHT22;18708;53.124;23.190;2022-08-18T16:36:19;29.20;78.50
32215;DHT22;18708;53.124;23.190;2022-08-18T16:38:49;29.20;77.50
32215;DHT22;18708;53.124;23.190;2022-08-18T16:41:16;29.10;77.10
32215;DHT22;18708;53.124;23.190;2022-08-18T16:43:43;29.00;77.60
32215;DHT22;18708;53.124;23.190;2022-08-18T16:46:10;28.90;79.90
32215;DHT22;18708;53.124;23.190;2022-08-18T16:48:36;28.80;79.10
32215;DHT22;18708;53.124;23.190;2022-08-18T16:51:01;28.70;78.30
32215;DHT22;18708;53.124;23.190;2022-08-18T16:53:27;28.70;78.90
32215;DHT22;18708;53.124;23.190;2022-08-18T16:55:53;28.70;78.70
32215;DHT22;18708;53.124;23.190;2022-08-18T16:58:18;28.60;79.40
32215;DHT22;18708;53.124;23.190;2022-08-18T17:01:02;28.60;79.50
32215;DHT22;18708;53.124;23.190;2022-08-18T17:03:46;28.60;79.70
32215;DHT22;18708;53.124;23.190;2022-08-18T17:06:31;28.50;81.10
32215;DHT22;18708;53.124;23.190;2022-08-18T17:08:57;28.40;81.20
32215;DHT22;18708;53.124;23.190;2022-08-18T17:11:23;28.40;82.40
32215;DHT22;18708;53.124;23.190;2022-08-18T17:13:51;28.30;82.50
32215;DHT22;18708;53.124;23.190;2022-08-18T17:16:19;28.20;83.90
32215;DHT22;18708;53.124;23.190;2022-08-18T17:18:45;28.10;85.00
32215;DHT22;18708;53.124;23.190;2022-08-18T17:21:12;28.10;86.70
32215;DHT22;18708;53.124;23.190;2022-08-18T17:23:38;28.00;88.10
32215;DHT22;18708;53.124;23.190;2022-08-18T17:26:05;28.00;89.40
32215;DHT22;18708;53.124;23.190;2022-08-18T17:28:34;28.00;90.10
32215;DHT22;18708;53.124;23.190;2022-08-18T17:31:03;27.80;91.10
32215;DHT22;18708;53.124;23.190;2022-08-18T17:33:30;27.70;91.90
32215;DHT22;18708;53.124;23.190;2022-08-18T17:35:56;27.50;92.80
32215;DHT22;18708;53.124;23.190;2022-08-18T17:38:36;27.40;94.00
32215;DHT22;18708;53.124;23.190;2022-08-18T17:41:04;27.30;95.10
32215;DHT22;18708;53.124;23.190;2022-08-18T17:43:32;27.30;96.30
32215;DHT22;18708;53.124;23.190;2022-08-18T17:51:18;27.10;99.40
32215;DHT22;18708;53.124;23.190;2022-08-18T17:54:07;27.10;99.70
32215;DHT22;18708;53.124;23.190;2022-08-18T17:56:39;27.20;99.90
32215;DHT22;18708;53.124;23.190;2022-08-18T17:59:11;27.30;99.90
32215;DHT22;18708;53.124;23.190;2022-08-18T18:01:38;27.40;99.90
32215;DHT22;18708;53.124;23.190;2022-08-18T18:04:03;27.40;99.90
32215;DHT22;18708;53.124;23.190;2022-08-18T18:09:03;27.50;99.90